Crisp, Illinois
Current Conditions -  °F | °C
As of 9:15 PM on Monday 20 Oct 2014 (Local Time) from KFWC Reporting Station
Clear Clear  
Wind Chill: 59°   Ceiling: Unl
Heat Index: 59°   Visibility: 10mi
Dew Point: 44°   Wind: 0mph
Humidity: 57%   Direction: NA
Pressure: 29.99"   Gusts: NA
Location:  38.3069°N, 88.55°W
Report Text: KFWC 210215Z AUTO 00000KT 10SM CLR 15/07 A2999 RMK AO1 T01510066
Loading
Personal Weather Stations






























Interactive Weather Map
Tropical Storm Tracking
New forecast layout! Learn more

10-Day Weather Forecast

Advertisements
Track Severe Weather on mobile